Uzice, Serbia
Current Conditions -  °F | °C
As of 1:30 PM on Saturday 01 Nov 2014 (Local Time) from LYUZ Reporting Station
Scattered Clouds Scattered Clouds  
Wind Chill: 46°   Ceiling: Unl
Heat Index: 46°   Visibility: 6mi
Dew Point: 39°   Wind: 3mph
Humidity: 76%   Direction: 10°N
Pressure: 30.27"   Gusts: NA
Location:  43.85°N, 19.85°E
Report Text: LYUZ 011130Z 01003KT 250V060 9999 SCT020 08/04 Q1025
Loading
Personal Weather Stations






























Interactive Weather Map
Tropical Storm Tracking
New forecast layout! Learn more

10-Day Weather Forecast

Advertisements
Track Severe Weather on mobile